Time;durP1;ratioP1;P1;durP2;ratioP2;P2;SDS_P1;SDS_P2;PMS_P1;PMS_P2;Temp;Humidity;BMP_temperature;BMP_pressure;BME280_temperature;BME280_humidity;BME280_pressure;Samples;Min_cycle;Max_cycle;Signal;HPM_P1;HPM_P2
2023/03/08 00:00:51;;;;;;;8.63;7.17;;;6.20;35.70;;;;;;20749;6837;118539;-79
2023/03/08 00:03:17;;;;;;;7.82;7.05;;;5.80;36.30;;;;;;20727;6837;122878;-78
2023/03/08 00:05:43;;;;;;;7.87;6.90;;;5.80;36.20;;;;;;20743;6837;117186;-79
2023/03/08 00:08:10;;;;;;;7.45;6.75;;;5.70;36.50;;;;;;20746;6837;117524;-79
2023/03/08 00:10:35;;;;;;;8.80;8.00;;;5.60;37.50;;;;;;20534;6837;345992;-79
2023/03/08 00:13:02;;;;;;;8.77;7.00;;;5.80;37.00;;;;;;20752;6837;116978;-78
2023/03/08 00:15:28;;;;;;;8.03;7.33;;;5.90;36.80;;;;;;20732;6837;117743;-79
2023/03/08 00:17:53;;;;;;;7.87;6.85;;;5.80;36.80;;;;;;20755;6837;117444;-78
2023/03/08 00:20:19;;;;;;;8.43;7.60;;;5.70;37.00;;;;;;20757;6837;117466;-78
2023/03/08 00:22:45;;;;;;;8.20;7.40;;;5.60;37.20;;;;;;20746;6835;119006;-79
2023/03/08 00:25:15;;;;;;;9.65;8.77;;;5.80;37.40;;;;;;20538;6836;278940;-79
2023/03/08 00:27:37;;;;;;;7.93;7.23;;;5.70;37.30;;;;;;20573;6836;118440;-79
2023/03/08 00:30:03;;;;;;;8.00;7.30;;;5.80;36.90;;;;;;20746;6836;116968;-79
2023/03/08 00:32:28;;;;;;;7.60;7.00;;;5.80;37.10;;;;;;20738;6836;118047;-79
2023/03/08 00:34:53;;;;;;;7.70;7.05;;;5.70;37.30;;;;;;20747;6837;119735;-80
2023/03/08 00:37:19;;;;;;;9.23;8.43;;;5.60;37.30;;;;;;20522;6837;312418;-79
2023/03/08 00:39:45;;;;;;;9.15;8.30;;;5.80;37.50;;;;;;20536;6837;307584;-79
2023/03/08 00:42:10;;;;;;;9.43;8.63;;;6.20;37.10;;;;;;20519;6837;308066;-79
2023/03/08 00:44:36;;;;;;;9.23;8.32;;;6.50;36.50;;;;;;20757;6837;117180;-79
2023/03/08 00:47:01;;;;;;;9.93;9.03;;;6.50;36.30;;;;;;20536;6837;339873;-79
2023/03/08 00:49:27;;;;;;;8.73;7.97;;;6.50;36.40;;;;;;20737;6837;118277;-79
2023/03/08 00:51:54;;;;;;;9.60;8.70;;;6.40;36.30;;;;;;20539;6837;338056;-80
2023/03/08 00:54:19;;;;;;;9.88;8.98;;;6.40;36.60;;;;;;20533;6837;308604;-79
2023/03/08 00:56:45;;;;;;;9.67;8.87;;;6.60;36.30;;;;;;20539;6837;310820;-78
2023/03/08 00:59:10;;;;;;;10.00;9.20;;;6.70;35.90;;;;;;20538;6837;281240;-79
2023/03/08 01:01:36;;;;;;;8.27;7.50;;;6.90;35.80;;;;;;20748;6837;116544;-79
2023/03/08 01:04:02;;;;;;;8.50;7.70;;;6.20;36.30;;;;;;20781;6837;70001;-79
2023/03/08 01:06:28;;;;;;;9.30;7.70;;;6.20;36.30;;;;;;20736;6837;117675;-81
2023/03/08 01:08:59;;;;;;;8.10;7.40;;;5.90;36.80;;;;;;20749;6837;117021;-80
2023/03/08 01:11:25;;;;;;;9.93;8.93;;;5.60;38.30;;;;;;20508;6837;337479;-77
2023/03/08 01:13:51;;;;;;;8.70;8.00;;;5.60;37.60;;;;;;20743;6837;121085;-77
2023/03/08 01:16:17;;;;;;;9.15;8.25;;;5.40;37.50;;;;;;20664;6837;118621;-79
2023/03/08 01:18:42;;;;;;;9.13;8.23;;;5.40;37.50;;;;;;20698;6837;117356;-78
2023/03/08 01:21:09;;;;;;;9.50;8.00;;;5.10;38.10;;;;;;20723;6837;118096;-78
2023/03/08 01:23:34;;;;;;;9.03;8.17;;;5.10;38.10;;;;;;20676;6837;120778;-77
2023/03/08 01:26:00;;;;;;;9.33;8.40;;;5.00;38.20;;;;;;20733;6837;116935;-77
2023/03/08 01:28:25;;;;;;;7.83;7.13;;;4.90;38.40;;;;;;20719;6837;117116;-78
2023/03/08 01:30:51;;;;;;;10.50;9.50;;;4.80;38.50;;;;;;20540;6837;337697;-78
2023/03/08 01:33:16;;;;;;;10.32;9.23;;;5.00;38.90;;;;;;20731;6837;118987;-78
2023/03/08 01:35:43;;;;;;;8.80;7.90;;;5.00;38.40;;;;;;20763;6835;118788;-78
2023/03/08 01:38:08;;;;;;;7.97;7.17;;;5.00;38.40;;;;;;20744;6836;116907;-77
2023/03/08 01:40:35;;;;;;;10.55;9.57;;;4.90;38.60;;;;;;20538;6836;278008;-78
2023/03/08 01:43:01;;;;;;;9.87;8.57;;;5.10;38.90;;;;;;20741;6836;117073;-78
2023/03/08 01:46:07;;;;;;;9.18;8.07;;;5.10;38.60;;;;;;20692;6837;118297;-78
2023/03/08 01:48:32;;;;;;;11.10;7.47;;;5.00;38.50;;;;;;20749;6837;117753;-78
2023/03/08 01:50:58;;;;;;;8.47;7.67;;;4.90;38.60;;;;;;20745;6837;117869;-78
2023/03/08 01:53:24;;;;;;;8.27;7.47;;;4.80;38.70;;;;;;20736;6837;118541;-78
2023/03/08 01:55:49;;;;;;;10.02;8.02;;;4.70;38.90;;;;;;20763;6837;117269;-79
2023/03/08 01:58:16;;;;;;;10.55;9.57;;;4.50;39.00;;;;;;20528;6837;337111;-78
2023/03/08 02:00:41;;;;;;;9.23;8.33;;;4.80;39.60;;;;;;20739;6837;118275;-79
2023/03/08 02:03:07;;;;;;;10.05;9.25;;;4.90;39.20;;;;;;20530;6837;307300;-79
2023/03/08 02:05:34;;;;;;;7.83;7.13;;;5.10;39.30;;;;;;20714;6837;118038;-79
2023/03/08 02:07:59;;;;;;;8.07;6.97;;;5.00;39.00;;;;;;20725;6837;118500;-78
2023/03/08 02:10:26;;;;;;;10.70;9.60;;;5.00;39.00;;;;;;20521;6837;308120;-78
2023/03/08 02:12:51;;;;;;;9.50;8.50;;;5.20;39.00;;;;;;20740;6837;117025;-79
2023/03/08 02:15:17;;;;;;;8.53;7.70;;;5.20;38.30;;;;;;20684;6837;120026;-79
2023/03/08 02:17:43;;;;;;;10.07;7.40;;;5.10;38.90;;;;;;20720;6840;118180;-80
2023/03/08 02:20:22;;;;;;;8.10;7.40;;;5.00;39.10;;;;;;20723;6840;117381;-79
2023/03/08 02:22:53;;;;;;;8.00;7.20;;;4.90;40.20;;;;;;20709;6840;118500;-78
2023/03/08 02:25:21;;;;;;;10.60;9.63;;;4.90;39.90;;;;;;20498;6840;278160;-79
2023/03/08 02:27:46;;;;;;;10.50;8.00;;;5.10;39.30;;;;;;20724;6836;118626;-78
2023/03/08 02:30:12;;;;;;;10.05;9.15;;;5.20;38.90;;;;;;20523;6836;307927;-79
2023/03/08 02:32:38;;;;;;;10.53;9.57;;;5.80;38.20;;;;;;20538;6836;278616;-78
2023/03/08 02:35:04;;;;;;;8.83;8.00;;;5.80;38.10;;;;;;20743;6836;118897;-79
2023/03/08 02:37:30;;;;;;;10.30;9.30;;;5.90;37.80;;;;;;20520;6836;279620;-78
2023/03/08 02:39:59;;;;;;;8.63;7.90;;;5.90;37.70;;;;;;20724;6836;119471;-78
2023/03/08 02:42:25;;;;;;;8.57;7.70;;;5.70;37.90;;;;;;20749;6836;117018;-78
2023/03/08 02:44:52;;;;;;;8.33;7.63;;;5.70;37.90;;;;;;20751;6836;117134;-78
2023/03/08 02:47:18;;;;;;;9.67;8.87;;;5.50;38.10;;;;;;20518;6834;278056;-77
2023/03/08 02:49:43;;;;;;;10.50;9.50;;;5.70;38.30;;;;;;20538;6835;277593;-80
2023/03/08 02:52:10;;;;;;;8.37;7.57;;;6.00;37.50;;;;;;20746;6836;118881;-77
2023/03/08 02:54:35;;;;;;;9.67;8.87;;;6.00;37.50;;;;;;20534;6836;308012;-78
2023/03/08 02:57:01;;;;;;;10.27;9.38;;;6.10;37.40;;;;;;20529;6836;300128;-79
2023/03/08 02:59:29;;;;;;;8.70;7.90;;;6.40;37.00;;;;;;20684;6836;121221;-78
2023/03/08 03:01:53;;;;;;;9.95;9.05;;;6.30;36.80;;;;;;20523;6836;312134;-78
2023/03/08 03:04:19;;;;;;;9.20;8.33;;;6.30;36.90;;;;;;20749;6836;118375;-78
2023/03/08 03:06:44;;;;;;;10.20;9.27;;;6.30;37.00;;;;;;20529;6836;337558;-78
2023/03/08 03:09:10;;;;;;;9.10;8.13;;;6.30;37.00;;;;;;20745;6836;117190;-78
2023/03/08 03:11:36;;;;;;;8.40;7.57;;;6.30;37.00;;;;;;20720;6836;119857;-78
2023/03/08 03:14:03;;;;;;;8.20;7.40;;;6.00;37.10;;;;;;20734;6836;117269;-79
2023/03/08 03:16:29;;;;;;;8.90;8.00;;;5.80;37.40;;;;;;20742;6836;117873;-79
2023/03/08 03:18:54;;;;;;;9.80;8.93;;;5.70;37.70;;;;;;20541;6836;278509;-79
2023/03/08 03:21:20;;;;;;;9.95;9.05;;;5.90;38.00;;;;;;20517;6836;277696;-79
2023/03/08 03:23:46;;;;;;;9.23;8.32;;;6.20;37.20;;;;;;20742;6836;117075;-78
2023/03/08 03:26:15;;;;;;;8.20;7.43;;;6.20;37.20;;;;;;20749;6836;117527;-81
2023/03/08 03:28:41;;;;;;;9.20;8.30;;;6.00;37.40;;;;;;20735;6836;118443;-79
2023/03/08 03:31:06;;;;;;;8.98;7.45;;;5.80;37.60;;;;;;20751;6836;117396;-78
2023/03/08 03:33:32;;;;;;;9.27;7.70;;;5.70;37.80;;;;;;20708;6836;117664;-82
2023/03/08 03:35:57;;;;;;;10.35;9.40;;;5.60;38.00;;;;;;20530;6836;336651;-78
2023/03/08 03:38:23;;;;;;;9.63;8.50;;;5.80;38.30;;;;;;20738;6836;117232;-80
2023/03/08 03:40:49;;;;;;;10.18;9.18;;;6.10;38.20;;;;;;20530;6836;307923;-78
2023/03/08 03:43:15;;;;;;;9.13;8.23;;;6.00;38.10;;;;;;20719;6836;146786;-78
2023/03/08 03:45:40;;;;;;;10.45;9.50;;;6.10;37.90;;;;;;20521;6836;308406;-79
2023/03/08 03:48:07;;;;;;;9.15;8.25;;;6.20;38.10;;;;;;20740;6836;117450;-78
2023/03/08 03:50:34;;;;;;;9.07;8.17;;;6.20;37.80;;;;;;20740;6836;116955;-79
2023/03/08 03:52:59;;;;;;;8.93;8.13;;;6.00;37.90;;;;;;20741;6836;118226;-78
2023/03/08 03:55:25;;;;;;;9.23;8.00;;;5.80;38.10;;;;;;20726;6836;117522;-78
2023/03/08 03:57:50;;;;;;;8.90;8.00;;;5.70;38.30;;;;;;20742;6834;118050;-78
2023/03/08 04:00:16;;;;;;;8.38;7.60;;;5.60;38.40;;;;;;20727;6835;121025;-78
2023/03/08 04:02:42;;;;;;;10.50;9.60;;;5.70;39.00;;;;;;20530;6836;337530;-78
2023/03/08 04:05:09;;;;;;;10.20;9.30;;;5.70;38.90;;;;;;20748;6836;118424;-80
2023/03/08 04:07:35;;;;;;;9.03;8.13;;;5.80;38.60;;;;;;20728;6836;117707;-78
2023/03/08 04:10:00;;;;;;;11.10;10.00;;;5.70;38.60;;;;;;20532;6836;315551;-78
2023/03/08 04:12:26;;;;;;;11.02;10.13;;;5.80;38.90;;;;;;20533;6836;307636;-78
2023/03/08 04:14:52;;;;;;;9.17;8.23;;;6.20;38.40;;;;;;20756;6836;117361;-78
2023/03/08 04:17:17;;;;;;;10.00;8.98;;;6.20;38.10;;;;;;20658;6836;118512;-77
2023/03/08 04:19:43;;;;;;;10.60;9.30;;;6.00;38.20;;;;;;20735;6836;118534;-78
2023/03/08 04:22:09;;;;;;;11.73;10.68;;;5.80;38.40;;;;;;20515;6836;334603;-78
2023/03/08 04:24:35;;;;;;;12.23;11.13;;;6.30;38.40;;;;;;20512;6836;311723;-78
2023/03/08 04:27:00;;;;;;;10.77;9.70;;;6.30;38.30;;;;;;20735;6836;117377;-78
2023/03/08 04:29:26;;;;;;;12.95;11.75;;;6.30;38.10;;;;;;20506;6836;312097;-77
2023/03/08 04:31:54;;;;;;;10.70;9.70;;;6.30;38.10;;;;;;20740;6836;118012;-79
2023/03/08 04:34:18;;;;;;;12.83;11.63;;;6.20;38.00;;;;;;20524;6836;313454;-76
2023/03/08 04:36:43;;;;;;;12.23;11.13;;;6.40;38.10;;;;;;20539;6836;278597;-75
2023/03/08 04:39:09;;;;;;;11.67;10.67;;;6.60;37.80;;;;;;20541;6836;281286;-80
2023/03/08 04:41:35;;;;;;;12.23;11.12;;;6.80;37.30;;;;;;20170;6836;310041;-80
2023/03/08 04:44:00;;;;;;;10.60;9.70;;;7.00;37.10;;;;;;20759;6836;117928;-80
2023/03/08 04:46:26;;;;;;;11.67;9.63;;;6.90;37.10;;;;;;20743;6836;117767;-80
2023/03/08 04:48:52;;;;;;;11.50;10.40;;;6.50;37.30;;;;;;20536;6840;343218;-81
2023/03/08 04:51:19;;;;;;;9.90;8.97;;;6.50;38.00;;;;;;20728;6840;118942;-80
2023/03/08 04:53:46;;;;;;;11.67;10.47;;;6.50;38.20;;;;;;20541;6840;311865;-82
2023/03/08 04:56:12;;;;;;;11.77;10.67;;;6.50;38.20;;;;;;20529;6843;286831;-77
2023/03/08 04:58:38;;;;;;;11.40;10.33;;;7.00;37.60;;;;;;20505;6843;279428;-77
2023/03/08 05:01:13;;;;;;;10.67;9.10;;;7.00;37.60;;;;;;20731;6840;117471;-77
2023/03/08 05:03:39;;;;;;;9.93;9.10;;;6.80;37.40;;;;;;20642;6840;117627;-80
2023/03/08 05:06:06;;;;;;;12.02;10.80;;;6.50;37.60;;;;;;20519;6840;315400;-79
2023/03/08 05:08:32;;;;;;;10.17;9.17;;;6.50;38.00;;;;;;20699;6860;117935;-82
2023/03/08 05:10:57;;;;;;;12.13;9.17;;;6.30;38.20;;;;;;20757;6833;116596;-81
2023/03/08 05:13:23;;;;;;;10.33;9.30;;;6.30;38.20;;;;;;20746;6835;118580;-80
2023/03/08 05:15:48;;;;;;;11.12;8.60;;;6.10;38.40;;;;;;20769;6835;120613;-80
2023/03/08 05:18:15;;;;;;;13.27;11.87;;;6.10;39.30;;;;;;20554;6835;307206;-79
2023/03/08 05:20:40;;;;;;;12.60;11.50;;;6.10;39.20;;;;;;20549;6835;307717;-79
2023/03/08 05:23:06;;;;;;;12.55;11.45;;;6.50;39.10;;;;;;20537;6835;298420;-79
2023/03/08 05:25:32;;;;;;;13.27;11.97;;;6.80;38.60;;;;;;20519;6835;312973;-79
2023/03/08 05:27:57;;;;;;;12.93;11.70;;;7.00;37.90;;;;;;20543;6835;310595;-77
2023/03/08 05:30:23;;;;;;;12.53;11.50;;;7.20;37.50;;;;;;20568;6835;307306;-78
2023/03/08 05:32:48;;;;;;;13.00;11.80;;;7.30;37.10;;;;;;20541;6835;307757;-80
2023/03/08 05:35:14;;;;;;;11.48;10.40;;;7.40;37.00;;;;;;20747;6835;121210;-79
2023/03/08 05:37:40;;;;;;;16.07;11.73;;;6.90;37.30;;;;;;20754;6835;118102;-78
2023/03/08 05:40:06;;;;;;;13.40;12.10;;;6.80;37.30;;;;;;20542;6835;281910;-79
2023/03/08 05:42:31;;;;;;;13.43;12.13;;;6.80;37.60;;;;;;20533;6835;283415;-77
2023/03/08 05:44:58;;;;;;;12.27;11.18;;;7.20;37.40;;;;;;20534;6835;318217;-76
2023/03/08 05:47:24;;;;;;;12.88;11.73;;;7.30;37.60;;;;;;20523;6835;306704;-86
2023/03/08 05:49:50;;;;;;;12.63;11.10;;;7.30;37.50;;;;;;20546;6835;308426;-75
2023/03/08 05:52:15;;;;;;;11.70;10.37;;;7.50;37.80;;;;;;20768;6835;117367;-78
2023/03/08 05:54:43;;;;;;;9.30;8.50;;;6.90;37.40;;;;;;20755;6835;118924;-78
2023/03/08 05:57:10;;;;;;;10.00;8.93;;;6.90;37.40;;;;;;20751;6835;123374;-79
2023/03/08 05:59:36;;;;;;;11.70;10.60;;;6.60;37.70;;;;;;20529;6835;279236;-76
2023/03/08 06:02:02;;;;;;;12.00;10.93;;;6.70;37.90;;;;;;20530;6835;335882;-77
2023/03/08 06:04:29;;;;;;;12.20;11.00;;;7.20;37.40;;;;;;20528;6835;311948;-76
2023/03/08 06:06:55;;;;;;;11.37;9.27;;;7.20;37.40;;;;;;20736;6835;118492;-76
2023/03/08 06:09:21;;;;;;;11.25;9.30;;;6.80;37.50;;;;;;20728;6835;117681;-79
2023/03/08 06:11:48;;;;;;;10.80;8.93;;;6.80;37.50;;;;;;20778;6835;116913;-80
2023/03/08 06:14:15;;;;;;;10.30;9.30;;;6.60;37.90;;;;;;20784;6835;117648;-79
2023/03/08 06:16:40;;;;;;;9.80;8.90;;;6.40;38.20;;;;;;20721;6835;117377;-79
2023/03/08 06:19:08;;;;;;;9.82;8.82;;;6.10;38.60;;;;;;20739;6835;118141;-81
2023/03/08 06:21:33;;;;;;;9.93;8.93;;;6.10;38.60;;;;;;20701;6834;118594;-81
2023/03/08 06:23:59;;;;;;;9.88;8.95;;;6.00;38.70;;;;;;20763;6835;116945;-81
2023/03/08 06:26:25;;;;;;;12.70;9.13;;;6.00;38.90;;;;;;20757;6835;116952;-83
2023/03/08 06:28:51;;;;;;;12.13;11.03;;;6.20;39.70;;;;;;20549;6835;308460;-82
2023/03/08 06:31:16;;;;;;;10.53;9.50;;;6.10;39.00;;;;;;20745;6835;118246;-82
2023/03/08 06:33:44;;;;;;;10.90;9.57;;;6.30;38.80;;;;;;20768;6835;117292;-83
2023/03/08 06:36:09;;;;;;;10.77;8.97;;;6.20;38.60;;;;;;20771;6835;117253;-84
2023/03/08 06:38:35;;;;;;;9.33;8.40;;;6.20;38.80;;;;;;20765;6835;117232;-80
2023/03/08 06:41:00;;;;;;;10.50;9.50;;;6.10;38.80;;;;;;20744;6835;117008;-81
2023/03/08 06:43:26;;;;;;;11.35;10.35;;;6.00;38.90;;;;;;20533;6835;277735;-81
2023/03/08 06:45:52;;;;;;;11.20;9.90;;;6.30;39.00;;;;;;20745;6835;117854;-82
2023/03/08 06:48:17;;;;;;;10.17;9.13;;;6.40;38.60;;;;;;20739;6835;119501;-81
2023/03/08 06:53:43;;;;;;;10.50;9.43;;;6.60;39.60;;;;;;20747;6835;117667;-82
2023/03/08 06:56:08;;;;;;;10.55;9.55;;;6.70;38.50;;;;;;20749;6835;117310;-81
2023/03/08 06:58:35;;;;;;;11.77;10.30;;;6.50;38.70;;;;;;20745;6835;118651;-81
2023/03/08 07:01:03;;;;;;;11.33;9.87;;;6.50;38.70;;;;;;20753;6835;117809;-81
2023/03/08 07:03:26;;;;;;;12.83;11.73;;;6.50;38.90;;;;;;20522;6835;278920;-82
2023/03/08 07:05:51;;;;;;;13.70;12.30;;;6.70;39.30;;;;;;20544;6835;307742;-82
2023/03/08 07:08:18;;;;;;;13.60;12.40;;;7.50;38.30;;;;;;20544;6835;337183;-82
2023/03/08 07:10:43;;;;;;;13.37;12.20;;;7.50;38.30;;;;;;20546;6835;308030;-82
2023/03/08 07:13:09;;;;;;;13.23;12.02;;;7.80;38.10;;;;;;20556;6835;278538;-79
2023/03/08 07:15:35;;;;;;;11.55;10.45;;;7.90;37.70;;;;;;20752;6835;121073;-82
2023/03/08 07:18:01;;;;;;;13.00;11.03;;;7.90;37.70;;;;;;20636;6835;117134;-79
2023/03/08 07:20:28;;;;;;;12.10;10.90;;;7.70;38.00;;;;;;20720;6835;117458;-77
2023/03/08 07:22:54;;;;;;;13.17;10.50;;;7.20;39.00;;;;;;20729;6835;118470;-76
2023/03/08 07:25:20;;;;;;;13.68;12.37;;;7.20;38.60;;;;;;20533;6835;300806;-76
2023/03/08 07:27:45;;;;;;;14.20;12.90;;;7.40;39.10;;;;;;20556;6835;313033;-77
2023/03/08 07:30:13;;;;;;;14.70;13.40;;;7.70;38.60;;;;;;20548;6835;312635;-77
2023/03/08 07:32:41;;;;;;;13.43;12.03;;;8.10;39.10;;;;;;20758;6834;118185;-77
2023/03/08 07:35:07;;;;;;;12.83;11.57;;;8.10;38.10;;;;;;20767;6834;117385;-77
2023/03/08 07:37:33;;;;;;;11.75;10.65;;;7.90;38.30;;;;;;20729;6835;120120;-78
2023/03/08 07:39:58;;;;;;;14.15;11.60;;;7.70;38.60;;;;;;20753;6835;117819;-77
2023/03/08 07:42:26;;;;;;;13.10;11.73;;;7.60;38.80;;;;;;20744;6835;117692;-82
2023/03/08 07:44:49;;;;;;;12.90;11.60;;;7.50;39.00;;;;;;20743;6835;119185;-78
2023/03/08 07:47:15;;;;;;;15.00;13.52;;;7.40;39.10;;;;;;20521;6835;337783;-78
2023/03/08 07:49:40;;;;;;;13.73;12.32;;;7.60;39.50;;;;;;20753;6835;119165;-80
2023/03/08 07:52:06;;;;;;;13.87;11.13;;;7.70;39.30;;;;;;20756;6835;117427;-78
2023/03/08 07:54:32;;;;;;;15.10;13.60;;;7.70;39.20;;;;;;20537;6835;341774;-77
2023/03/08 07:56:57;;;;;;;14.63;13.23;;;7.90;39.50;;;;;;20561;6835;278073;-78
2023/03/08 07:59:23;;;;;;;15.20;13.80;;;8.30;39.00;;;;;;20526;6835;304996;-80
2023/03/08 08:01:48;;;;;;;13.07;11.43;;;8.60;38.50;;;;;;20754;6835;118735;-78
2023/03/08 08:04:14;;;;;;;14.83;13.33;;;8.50;38.10;;;;;;20536;6835;307641;-81
2023/03/08 08:06:39;;;;;;;14.13;11.80;;;8.60;38.20;;;;;;20747;6835;117674;-82
2023/03/08 08:09:05;;;;;;;12.33;11.13;;;8.50;38.00;;;;;;20753;6835;118668;-81
2023/03/08 08:11:30;;;;;;;13.13;11.50;;;8.30;38.30;;;;;;20725;6835;118828;-80
2023/03/08 08:13:56;;;;;;;13.07;11.98;;;8.10;38.50;;;;;;20541;6835;336318;-79
2023/03/08 08:16:24;;;;;;;12.27;11.05;;;8.20;38.80;;;;;;20741;6835;120115;-81
2023/03/08 08:18:49;;;;;;;15.02;13.62;;;8.30;38.60;;;;;;20516;6835;333618;-80
2023/03/08 08:21:14;;;;;;;14.02;12.05;;;8.40;38.40;;;;;;20688;6835;117442;-78
2023/03/08 08:23:40;;;;;;;12.80;11.50;;;8.40;38.20;;;;;;20708;6835;117601;-79
2023/03/08 08:26:05;;;;;;;13.13;11.73;;;8.30;38.40;;;;;;20716;6835;119010;-80
2023/03/08 08:28:32;;;;;;;15.73;14.37;;;8.30;38.80;;;;;;20510;6835;307025;-81
2023/03/08 08:30:57;;;;;;;15.43;13.97;;;8.30;38.80;;;;;;20546;6835;307654;-81
2023/03/08 08:33:23;;;;;;;15.13;13.70;;;8.60;38.60;;;;;;20479;6835;309707;-78
2023/03/08 08:35:49;;;;;;;14.80;13.25;;;8.90;38.20;;;;;;20759;6835;119235;-79
2023/03/08 08:38:17;;;;;;;15.87;14.27;;;8.90;38.20;;;;;;20779;6835;116362;-79
2023/03/08 08:40:43;;;;;;;18.17;16.27;;;8.70;38.60;;;;;;20548;6835;289800;-78
2023/03/08 08:43:09;;;;;;;28.17;21.73;;;8.80;39.20;;;;;;20542;6835;293346;-77
2023/03/08 08:45:34;;;;;;;15.68;14.07;;;9.10;38.80;;;;;;20522;6834;342537;-80
2023/03/08 08:48:00;;;;;;;14.87;13.47;;;9.30;38.40;;;;;;20533;6835;278153;-83
2023/03/08 08:50:25;;;;;;;13.20;11.70;;;9.50;37.90;;;;;;20741;6835;117381;-81
2023/03/08 08:52:52;;;;;;;14.00;12.53;;;9.40;37.90;;;;;;20750;6835;117885;-80
2023/03/08 08:55:18;;;;;;;15.10;13.77;;;9.10;39.20;;;;;;20511;6835;288282;-78
2023/03/08 08:57:44;;;;;;;13.93;12.73;;;9.10;39.20;;;;;;20559;6835;277749;-81
2023/03/08 09:00:10;;;;;;;24.65;19.67;;;9.30;38.90;;;;;;20549;6835;311916;-81
2023/03/08 09:02:36;;;;;;;17.73;14.10;;;9.50;38.80;;;;;;20752;6835;117301;-80
2023/03/08 09:05:03;;;;;;;14.20;12.70;;;9.20;39.00;;;;;;20757;6835;121647;-80
2023/03/08 09:07:29;;;;;;;14.83;13.43;;;9.20;39.00;;;;;;20509;6835;307243;-81
2023/03/08 09:09:55;;;;;;;13.60;12.30;;;9.20;39.50;;;;;;20744;6835;118013;-81
2023/03/08 09:12:21;;;;;;;11.70;10.60;;;9.20;39.50;;;;;;20737;6835;118339;-81
2023/03/08 09:14:47;;;;;;;12.33;11.00;;;8.80;39.50;;;;;;20745;6835;117255;-82
2023/03/08 09:17:13;;;;;;;18.40;13.37;;;8.80;39.50;;;;;;20669;6835;119304;-78
2023/03/08 09:19:38;;;;;;;23.25;13.25;;;8.70;39.70;;;;;;20748;6835;119359;-80
2023/03/08 09:22:04;;;;;;;13.20;11.35;;;8.60;39.80;;;;;;20750;6835;117461;-80
2023/03/08 09:24:29;;;;;;;11.67;10.47;;;8.60;40.00;;;;;;20752;6835;117810;-79
2023/03/08 09:26:55;;;;;;;11.75;10.18;;;8.50;40.00;;;;;;20753;6835;120478;-78
2023/03/08 09:29:21;;;;;;;14.03;12.73;;;8.70;40.30;;;;;;20523;6835;279625;-77
2023/03/08 09:31:47;;;;;;;13.70;12.30;;;9.20;39.80;;;;;;20528;6835;338596;-79
2023/03/08 09:34:15;;;;;;;7.70;7.00;;;9.10;39.70;;;;;;20697;6835;117199;-79
2023/03/08 09:36:40;;;;;;;13.40;12.03;;;9.30;39.30;;;;;;20743;6835;119923;-78
2023/03/08 09:39:09;;;;;;;12.68;11.50;;;9.10;39.50;;;;;;20555;6835;281343;-76
2023/03/08 09:41:52;;;;;;;12.47;10.30;;;9.30;40.30;;;;;;20740;6835;119502;-76
2023/03/08 09:44:44;;;;;;;9.87;9.07;;;9.30;40.00;;;;;;20395;6835;311454;-79
2023/03/08 09:47:45;;;;;;;7.40;6.90;;;9.50;41.10;;;;;;20748;6835;122895;-79
2023/03/08 09:50:11;;;;;;;7.80;7.20;;;9.40;40.80;;;;;;20545;6835;278410;-78
2023/03/08 09:52:40;;;;;;;8.63;7.90;;;9.60;42.50;;;;;;20557;6835;278788;-80
2023/03/08 09:55:11;;;;;;;7.90;7.20;;;9.90;42.90;;;;;;20534;6834;308007;-81
2023/03/08 09:57:37;;;;;;;5.87;5.20;;;10.20;42.40;;;;;;20706;6834;120421;-80
2023/03/08 10:00:07;;;;;;;5.70;5.22;;;10.00;42.00;;;;;;20730;6835;118339;-81
2023/03/08 10:02:51;;;;;;;5.23;4.83;;;9.80;42.90;;;;;;20712;6835;117101;-79
2023/03/08 10:05:20;;;;;;;5.93;5.53;;;9.80;42.90;;;;;;20516;6835;280538;-77
2023/03/08 10:07:58;;;;;;;5.93;5.47;;;10.00;43.60;;;;;;20535;6835;282928;-81
2023/03/08 10:10:47;;;;;;;5.30;4.90;;;10.30;43.40;;;;;;20750;6835;117180;-80
2023/03/08 10:13:18;;;;;;;4.80;4.50;;;10.40;43.40;;;;;;20728;6835;118399;-80
2023/03/08 10:15:45;;;;;;;5.50;5.10;;;10.20;42.50;;;;;;20515;6835;312009;-79
2023/03/08 10:18:20;;;;;;;4.87;4.37;;;10.30;43.50;;;;;;20747;6835;118296;-79
2023/03/08 10:20:47;;;;;;;5.67;5.17;;;10.40;43.10;;;;;;20517;6835;308438;-78
2023/03/08 10:23:15;;;;;;;5.40;5.00;;;10.50;43.40;;;;;;20514;6835;292227;-78
2023/03/08 10:25:42;;;;;;;5.53;5.13;;;11.10;43.00;;;;;;20369;6835;283761;-79
2023/03/08 10:28:10;;;;;;;5.25;4.85;;;11.10;43.00;;;;;;20529;6835;341099;-78
2023/03/08 10:30:36;;;;;;;4.90;4.50;;;11.30;43.00;;;;;;20719;6835;121466;-77
2023/03/08 10:33:03;;;;;;;4.45;3.90;;;11.30;42.60;;;;;;20739;6835;117171;-77
2023/03/08 10:35:29;;;;;;;5.17;4.77;;;11.00;42.40;;;;;;20521;6835;323475;-77
2023/03/08 10:37:54;;;;;;;4.95;4.55;;;11.10;43.40;;;;;;20525;6835;286385;-78
2023/03/08 10:40:21;;;;;;;4.12;3.92;;;11.40;43.60;;;;;;20759;6835;117500;-77
2023/03/08 10:42:45;;;;;;;4.47;4.17;;;11.40;42.90;;;;;;20534;6835;307958;-78
2023/03/08 10:45:20;;;;;;;5.35;3.70;;;11.50;43.80;;;;;;20740;6835;117318;-78
2023/03/08 10:47:43;;;;;;;3.83;3.53;;;11.60;43.30;;;;;;20738;6835;117394;-79
2023/03/08 10:50:26;;;;;;;4.30;3.90;;;11.50;43.40;;;;;;20509;6835;312078;-77
2023/03/08 10:52:51;;;;;;;3.53;3.33;;;11.60;44.60;;;;;;20743;6835;119327;-78
2023/03/08 10:55:21;;;;;;;4.00;3.60;;;11.70;44.10;;;;;;20518;6835;308176;-77
2023/03/08 10:57:56;;;;;;;3.50;3.30;;;11.90;45.00;;;;;;20379;6835;329254;-76
2023/03/08 11:00:32;;;;;;;3.47;3.27;;;12.40;43.80;;;;;;20749;6835;120296;-78
2023/03/08 11:03:14;;;;;;;3.00;2.80;;;12.40;43.80;;;;;;20739;6835;117292;-78
2023/03/08 11:05:40;;;;;;;3.40;3.20;;;12.40;43.70;;;;;;20540;6835;307520;-76
2023/03/08 11:08:09;;;;;;;2.95;2.85;;;12.80;44.20;;;;;;20494;6834;309937;-78
2023/03/08 11:10:36;;;;;;;3.27;3.07;;;12.80;44.20;;;;;;20522;6835;294627;-73
2023/03/08 11:13:01;;;;;;;2.50;2.40;;;13.10;44.20;;;;;;20743;6835;117368;-73
2023/03/08 11:15:27;;;;;;;3.83;2.20;;;13.10;43.60;;;;;;20707;6835;123200;-76
2023/03/08 11:18:03;;;;;;;2.10;2.00;;;12.90;43.30;;;;;;20543;6835;277913;-76
2023/03/08 11:20:35;;;;;;;1.60;1.50;;;13.00;44.40;;;;;;20569;6835;117434;-77
2023/03/08 11:23:21;;;;;;;1.63;1.30;;;13.00;43.30;;;;;;20712;6835;117125;-71
2023/03/08 11:25:46;;;;;;;1.00;1.00;;;12.80;42.90;;;;;;20736;6835;117727;-75
2023/03/08 11:28:32;;;;;;;0.70;0.70;;;12.70;43.70;;;;;;20724;6835;117295;-75
2023/03/08 11:31:13;;;;;;;0.70;0.70;;;12.70;43.90;;;;;;20748;6835;118401;-78
2023/03/08 11:33:49;;;;;;;0.67;0.67;;;12.80;44.10;;;;;;20520;6835;305112;-77
2023/03/08 11:36:41;;;;;;;0.50;0.50;;;13.30;45.20;;;;;;20741;6835;117229;-74
2023/03/08 11:39:18;;;;;;;0.70;0.70;;;13.30;44.50;;;;;;20548;6835;309976;-76
2023/03/08 11:41:45;;;;;;;0.53;0.53;;;13.60;45.30;;;;;;20717;6835;116897;-76
2023/03/08 11:44:20;;;;;;;1.10;0.60;;;13.80;43.40;;;;;;20527;6835;277957;-76
2023/03/08 11:46:49;;;;;;;0.70;0.60;;;13.90;44.10;;;;;;20523;6835;307758;-75
2023/03/08 11:49:21;;;;;;;2.17;0.67;;;14.20;43.80;;;;;;19763;6832;323582;-74
2023/03/08 11:52:13;;;;;;;0.80;0.65;;;14.50;43.80;;;;;;20493;6843;337730;-77
2023/03/08 11:54:46;;;;;;;0.33;0.33;;;14.70;43.50;;;;;;20659;6858;117291;-75
2023/03/08 11:57:12;;;;;;;1.00;0.50;;;14.50;42.10;;;;;;19622;6884;280821;-74
2023/03/08 11:59:43;;;;;;;0.37;0.37;;;14.40;43.20;;;;;;20547;6884;119113;-74
2023/03/08 12:02:12;;;;;;;0.40;0.40;;;14.30;42.60;;;;;;20588;6860;123882;-75
2023/03/08 12:04:44;;;;;;;0.60;0.60;;;14.00;42.30;;;;;;20651;6860;123394;-75
2023/03/08 12:07:17;;;;;;;1.42;0.90;;;13.80;44.50;;;;;;20472;6857;278062;-70
2023/03/08 12:09:58;;;;;;;0.50;0.50;;;13.80;44.50;;;;;;20669;6857;118204;-76
2023/03/08 12:12:34;;;;;;;0.60;0.60;;;13.70;43.10;;;;;;20662;6864;116368;-76
2023/03/08 12:15:06;;;;;;;0.50;0.50;;;13.60;42.90;;;;;;20650;6860;117470;-75
2023/03/08 12:17:35;;;;;;;0.30;0.30;;;13.50;43.00;;;;;;20628;6860;118440;-72
2023/03/08 12:20:05;;;;;;;1.35;0.50;;;13.30;42.90;;;;;;20449;6857;307959;-74
2023/03/08 12:22:53;;;;;;;0.30;0.30;;;13.50;44.60;;;;;;20667;6859;117331;-73
2023/03/08 12:25:26;;;;;;;0.40;0.30;;;13.50;43.20;;;;;;20647;6849;118939;-74
2023/03/08 12:27:58;;;;;;;0.97;0.30;;;13.30;42.80;;;;;;20496;6849;281460;-74
2023/03/08 12:30:31;;;;;;;4.13;0.40;;;13.50;44.60;;;;;;20661;6855;116368;-75
2023/03/08 12:32:59;;;;;;;0.30;0.30;;;13.50;43.70;;;;;;20636;6855;119017;-77
2023/03/08 12:35:33;;;;;;;1.37;0.50;;;13.30;43.40;;;;;;20626;6855;117674;-78
2023/03/08 12:37:59;;;;;;;0.80;0.40;;;13.20;43.40;;;;;;20413;6860;283786;-77
2023/03/08 12:40:29;;;;;;;0.47;0.40;;;13.40;45.20;;;;;;20536;6835;277953;-77